createdAt,value
2023-05-08T16:05:26.948Z,21.40
2023-05-08T16:05:38.033Z,21.43
2023-05-08T16:05:48.147Z,21.44
2023-05-08T16:05:58.273Z,21.45
2023-05-08T16:06:08.399Z,21.45
2023-05-08T16:06:18.523Z,21.45
2023-05-08T16:06:28.645Z,21.45
2023-05-08T16:06:38.769Z,21.45
2023-05-08T16:06:48.898Z,21.47
2023-05-08T16:06:59.032Z,21.47
2023-05-08T16:07:09.158Z,21.48
2023-05-08T16:07:19.310Z,21.47
2023-05-08T16:07:29.419Z,21.47
2023-05-08T16:07:39.532Z,21.50
2023-05-08T16:07:49.655Z,21.50
2023-05-08T16:07:59.792Z,21.50
2023-05-08T16:08:09.907Z,21.50
2023-05-08T16:08:20.034Z,21.51
2023-05-08T16:08:30.164Z,21.51
2023-05-08T16:08:40.296Z,21.51
2023-05-08T16:08:50.407Z,21.48
2023-05-08T16:09:00.536Z,21.50
2023-05-08T16:09:10.669Z,21.48
2023-05-08T16:09:20.789Z,21.47
2023-05-08T16:09:31.092Z,21.47
2023-05-08T16:10:43.486Z,21.44
2023-05-08T16:10:54.588Z,21.50
2023-05-08T16:11:04.673Z,21.50
2023-05-08T16:11:14.728Z,21.48
2023-05-08T16:11:24.877Z,21.47
2023-05-08T16:11:34.942Z,21.50
2023-05-08T16:11:45.009Z,21.50
2023-05-08T16:11:55.075Z,21.50
2023-05-08T16:12:05.139Z,21.50
2023-05-08T16:12:15.196Z,21.48
2023-05-08T16:12:25.263Z,21.50
2023-05-08T16:12:35.325Z,21.48
2023-05-08T16:12:45.423Z,21.48
2023-05-08T16:12:55.585Z,21.48
2023-05-08T16:13:05.675Z,21.47
2023-05-08T16:13:15.656Z,21.48
2023-05-08T16:13:25.761Z,21.47
2023-05-08T16:13:35.843Z,21.45
2023-05-08T16:13:45.929Z,21.45
2023-05-08T16:13:55.995Z,21.45
2023-05-08T16:14:06.063Z,21.45
2023-05-08T16:14:16.129Z,21.44
2023-05-08T16:14:26.197Z,21.44
2023-05-08T16:14:36.273Z,21.44
2023-05-08T16:14:46.336Z,21.44
2023-05-08T16:14:56.407Z,21.44
2023-05-08T16:15:06.472Z,21.44
2023-05-08T16:15:16.537Z,21.43
2023-05-08T16:15:26.616Z,21.44
2023-05-08T16:15:36.674Z,21.44
2023-05-08T16:15:46.795Z,21.44
2023-05-08T16:15:56.902Z,21.44
2023-05-08T16:16:07.022Z,21.44
2023-05-08T16:16:17.169Z,21.44
2023-05-08T16:16:27.203Z,21.44
2023-05-08T16:16:37.296Z,21.44
2023-05-08T16:16:47.381Z,21.44
2023-05-08T16:16:57.453Z,21.45
2023-05-08T16:17:07.506Z,21.44
2023-05-08T16:17:17.577Z,21.44
2023-05-08T16:17:27.679Z,21.44
2023-05-08T16:17:37.761Z,21.43
2023-05-08T16:17:47.867Z,21.43
2023-05-08T16:17:57.948Z,21.43
2023-05-08T16:18:08.151Z,21.43
2023-05-08T16:18:18.071Z,21.43
2023-05-08T16:18:28.140Z,21.41
2023-05-08T16:18:38.199Z,21.41
2023-05-08T16:18:48.285Z,21.43
2023-05-08T16:18:58.344Z,21.43
2023-05-08T16:19:08.408Z,21.41
2023-05-08T16:19:18.469Z,21.43
2023-05-08T16:19:28.818Z,21.41
2023-05-08T16:19:38.628Z,21.43
2023-05-08T16:19:48.704Z,21.41
2023-05-08T16:19:58.756Z,21.40
2023-05-08T16:20:08.822Z,21.38
2023-05-08T16:20:18.882Z,21.38
2023-05-08T16:20:28.952Z,21.37
2023-05-08T16:20:39.020Z,21.37
2023-05-08T16:20:49.092Z,21.37
2023-05-08T16:20:59.146Z,21.35
2023-05-08T16:21:09.217Z,21.35
2023-05-08T16:21:19.275Z,21.35
2023-05-08T16:21:29.341Z,21.34
2023-05-08T16:21:39.404Z,21.34
2023-05-08T16:21:49.464Z,21.32
2023-05-08T16:21:59.529Z,21.32
2023-05-08T16:22:09.614Z,21.34
2023-05-08T16:22:19.673Z,21.34
2023-05-08T16:22:29.743Z,21.30
2023-05-08T16:22:39.787Z,21.32
2023-05-08T16:22:49.856Z,21.32
2023-05-08T16:22:59.979Z,21.29
2023-05-08T16:23:10.055Z,21.29
2023-05-08T16:23:20.118Z,21.28
2023-05-08T16:23:30.195Z,21.28
2023-05-08T16:23:40.282Z,21.28
2023-05-08T16:23:50.345Z,21.28
2023-05-08T16:24:00.417Z,21.28
2023-05-08T16:24:10.473Z,21.28
2023-05-08T16:24:20.543Z,21.26
2023-05-08T16:24:30.605Z,21.26
2023-05-08T16:24:40.675Z,21.26
2023-05-08T16:24:50.731Z,21.28
2023-05-08T16:25:00.803Z,21.28
2023-05-08T16:25:11.050Z,21.28
2023-05-08T16:25:20.927Z,21.28
2023-05-08T16:25:31.013Z,21.28
2023-05-08T16:25:41.078Z,21.26
2023-05-08T16:25:51.174Z,21.29
2023-05-08T16:26:01.246Z,21.28
2023-05-08T16:26:11.314Z,21.26
2023-05-08T16:26:21.373Z,21.28
2023-05-08T16:26:31.453Z,21.26
2023-05-08T16:26:41.552Z,21.37
2023-05-08T16:26:51.608Z,23.39
2023-05-08T16:27:01.670Z,23.78
2023-05-08T16:27:11.734Z,23.64
2023-05-08T16:27:21.790Z,23.51
2023-05-08T16:27:31.856Z,23.37
2023-05-08T16:27:41.924Z,23.25
2023-05-08T16:27:52.004Z,23.14
2023-05-08T16:28:02.071Z,23.01
2023-05-08T16:28:12.134Z,22.89
2023-05-08T16:28:22.210Z,22.78
2023-05-08T16:28:32.259Z,22.70
2023-05-08T16:28:42.325Z,22.62
2023-05-08T16:28:52.386Z,22.51
2023-05-08T16:29:02.451Z,22.44
2023-05-08T16:29:12.515Z,22.38
2023-05-08T16:29:22.573Z,22.31
2023-05-08T16:29:32.631Z,22.27
2023-05-08T16:29:42.702Z,22.22
2023-05-08T16:29:52.769Z,22.15
2023-05-08T16:30:02.827Z,22.12
2023-05-08T16:30:12.902Z,22.09
2023-05-08T16:30:22.977Z,22.04
2023-05-08T16:30:33.040Z,22.03
2023-05-08T16:30:43.102Z,22.00
2023-05-08T16:30:53.206Z,21.97
2023-05-08T16:31:03.310Z,21.93
2023-05-08T16:31:13.440Z,21.93
2023-05-08T16:31:23.526Z,21.88
2023-05-08T16:31:33.630Z,21.88
2023-05-08T16:31:43.627Z,21.82
2023-05-08T16:31:53.740Z,21.80
2023-05-08T16:32:03.808Z,21.78
2023-05-08T16:32:13.880Z,21.78
2023-05-08T16:32:23.959Z,21.77
2023-05-08T16:32:34.032Z,21.77
2023-05-08T16:32:44.094Z,21.78
2023-05-08T16:32:54.198Z,21.75
2023-05-08T16:33:04.278Z,21.75
2023-05-08T16:33:14.351Z,21.73
2023-05-08T16:33:24.402Z,21.73
2023-05-08T16:33:34.473Z,21.73
2023-05-08T16:33:44.522Z,21.73
2023-05-08T16:33:54.591Z,21.69
2023-05-08T16:34:04.697Z,21.69
2023-05-08T16:34:14.744Z,21.69
2023-05-08T16:34:24.872Z,21.67
2023-05-08T16:34:34.932Z,21.69
2023-05-08T16:34:45.009Z,21.69
2023-05-08T16:34:55.072Z,21.66
2023-05-08T16:35:05.215Z,21.66
2023-05-08T16:35:15.582Z,21.65
2023-05-08T16:35:25.343Z,21.66
2023-05-08T16:35:35.378Z,21.66
2023-05-08T16:35:45.458Z,21.67
2023-05-08T16:35:55.665Z,21.69
2023-05-08T16:36:05.634Z,21.67
2023-05-08T16:36:15.693Z,21.67
